sensor_id;sensor_type;location;lat;lon;timestamp;P1;durP1;ratioP1;P2;durP2;ratioP2
28836;SDS011;50669;50.982;11.022;2022-08-04T00:05:12;6.57;;;3.83;;
28836;SDS011;50669;50.982;11.022;2022-08-04T00:07:48;4.25;;;3.80;;
28836;SDS011;50669;50.982;11.022;2022-08-04T00:10:32;5.45;;;3.42;;
28836;SDS011;50669;50.982;11.022;2022-08-04T00:12:59;5.50;;;3.72;;
28836;SDS011;50669;50.982;11.022;2022-08-04T00:15:27;3.80;;;3.50;;
28836;SDS011;50669;50.982;11.022;2022-08-04T00:18:04;4.15;;;3.38;;
28836;SDS011;50669;50.982;11.022;2022-08-04T00:20:36;3.92;;;3.50;;
28836;SDS011;50669;50.982;11.022;2022-08-04T00:23:05;6.65;;;4.07;;
28836;SDS011;50669;50.982;11.022;2022-08-04T00:25:37;4.38;;;3.30;;
28836;SDS011;50669;50.982;11.022;2022-08-04T00:28:05;4.10;;;3.30;;
28836;SDS011;50669;50.982;11.022;2022-08-04T00:30:33;7.82;;;3.72;;
28836;SDS011;50669;50.982;11.022;2022-08-04T00:32:59;5.68;;;4.10;;
28836;SDS011;50669;50.982;11.022;2022-08-04T00:35:27;4.05;;;3.50;;
28836;SDS011;50669;50.982;11.022;2022-08-04T00:37:53;4.22;;;3.70;;
28836;SDS011;50669;50.982;11.022;2022-08-04T00:40:32;3.70;;;3.33;;
28836;SDS011;50669;50.982;11.022;2022-08-04T00:43:14;4.47;;;3.70;;
28836;SDS011;50669;50.982;11.022;2022-08-04T00:59:57;4.35;;;3.80;;
28836;SDS011;50669;50.982;11.022;2022-08-04T01:16:11;3.85;;;3.40;;
28836;SDS011;50669;50.982;11.022;2022-08-04T01:27:03;6.53;;;3.70;;
28836;SDS011;50669;50.982;11.022;2022-08-04T01:29:33;5.07;;;3.58;;
28836;SDS011;50669;50.982;11.022;2022-08-04T01:32:03;5.07;;;4.40;;
28836;SDS011;50669;50.982;11.022;2022-08-04T01:34:36;4.80;;;4.05;;
28836;SDS011;50669;50.982;11.022;2022-08-04T01:40:04;3.63;;;3.33;;
28836;SDS011;50669;50.982;11.022;2022-08-04T01:42:32;4.20;;;3.80;;
28836;SDS011;50669;50.982;11.022;2022-08-04T01:45:05;5.40;;;3.53;;
28836;SDS011;50669;50.982;11.022;2022-08-04T01:47:36;3.53;;;3.22;;
28836;SDS011;50669;50.982;11.022;2022-08-04T01:50:06;5.85;;;4.47;;
28836;SDS011;50669;50.982;11.022;2022-08-04T01:52:36;4.18;;;3.78;;
28836;SDS011;50669;50.982;11.022;2022-08-04T01:55:04;4.90;;;3.85;;
28836;SDS011;50669;50.982;11.022;2022-08-04T01:57:34;5.10;;;3.83;;
28836;SDS011;50669;50.982;11.022;2022-08-04T02:00:08;10.07;;;4.10;;
28836;SDS011;50669;50.982;11.022;2022-08-04T02:05:09;4.20;;;3.70;;
28836;SDS011;50669;50.982;11.022;2022-08-04T02:07:42;4.43;;;3.50;;
28836;SDS011;50669;50.982;11.022;2022-08-04T02:15:41;7.18;;;4.30;;
28836;SDS011;50669;50.982;11.022;2022-08-04T02:18:22;4.13;;;3.60;;
28836;SDS011;50669;50.982;11.022;2022-08-04T02:21:06;4.47;;;4.07;;
28836;SDS011;50669;50.982;11.022;2022-08-04T02:23:39;8.02;;;4.00;;
28836;SDS011;50669;50.982;11.022;2022-08-04T02:26:15;6.82;;;4.05;;
28836;SDS011;50669;50.982;11.022;2022-08-04T02:33:48;4.65;;;3.97;;
28836;SDS011;50669;50.982;11.022;2022-08-04T02:36:27;4.43;;;4.03;;
28836;SDS011;50669;50.982;11.022;2022-08-04T02:38:59;5.07;;;4.15;;
28836;SDS011;50669;50.982;11.022;2022-08-04T02:41:27;4.43;;;3.50;;
28836;SDS011;50669;50.982;11.022;2022-08-04T02:43:56;4.95;;;3.75;;
28836;SDS011;50669;50.982;11.022;2022-08-04T02:46:23;4.65;;;3.65;;
28836;SDS011;50669;50.982;11.022;2022-08-04T02:48:50;4.85;;;3.88;;
28836;SDS011;50669;50.982;11.022;2022-08-04T02:51:25;5.18;;;4.43;;
28836;SDS011;50669;50.982;11.022;2022-08-04T02:53:54;5.50;;;4.47;;
28836;SDS011;50669;50.982;11.022;2022-08-04T02:56:23;4.30;;;3.90;;
28836;SDS011;50669;50.982;11.022;2022-08-04T02:58:53;6.78;;;3.90;;
28836;SDS011;50669;50.982;11.022;2022-08-04T03:01:24;6.05;;;3.92;;
28836;SDS011;50669;50.982;11.022;2022-08-04T03:18:11;5.80;;;4.40;;
28836;SDS011;50669;50.982;11.022;2022-08-04T03:23:28;8.98;;;4.65;;
28836;SDS011;50669;50.982;11.022;2022-08-04T03:26:10;4.88;;;4.38;;
28836;SDS011;50669;50.982;11.022;2022-08-04T03:57:23;5.35;;;4.82;;
28836;SDS011;50669;50.982;11.022;2022-08-04T04:00:16;6.55;;;4.50;;
28836;SDS011;50669;50.982;11.022;2022-08-04T04:09:19;8.20;;;4.85;;
28836;SDS011;50669;50.982;11.022;2022-08-04T04:14:25;9.57;;;4.75;;
28836;SDS011;50669;50.982;11.022;2022-08-04T04:22:37;12.63;;;5.57;;
28836;SDS011;50669;50.982;11.022;2022-08-04T04:30:30;8.68;;;4.90;;
28836;SDS011;50669;50.982;11.022;2022-08-04T04:48:50;5.40;;;4.88;;
28836;SDS011;50669;50.982;11.022;2022-08-04T04:51:41;15.10;;;5.25;;
28836;SDS011;50669;50.982;11.022;2022-08-04T04:59:41;7.95;;;4.95;;
28836;SDS011;50669;50.982;11.022;2022-08-04T05:05:16;9.13;;;4.93;;
28836;SDS011;50669;50.982;11.022;2022-08-04T05:08:26;8.00;;;5.45;;
28836;SDS011;50669;50.982;11.022;2022-08-04T05:14:00;10.50;;;5.32;;
28836;SDS011;50669;50.982;11.022;2022-08-04T05:21:47;6.80;;;4.57;;
28836;SDS011;50669;50.982;11.022;2022-08-04T05:24:25;11.02;;;5.53;;
28836;SDS011;50669;50.982;11.022;2022-08-04T05:26:55;10.80;;;6.07;;
28836;SDS011;50669;50.982;11.022;2022-08-04T05:29:33;11.27;;;4.83;;
28836;SDS011;50669;50.982;11.022;2022-08-04T05:32:02;13.07;;;5.18;;
28836;SDS011;50669;50.982;11.022;2022-08-04T05:34:34;6.25;;;4.63;;
28836;SDS011;50669;50.982;11.022;2022-08-04T05:37:07;9.68;;;4.65;;
28836;SDS011;50669;50.982;11.022;2022-08-04T05:39:37;14.82;;;5.10;;
28836;SDS011;50669;50.982;11.022;2022-08-04T05:42:13;7.32;;;4.75;;
28836;SDS011;50669;50.982;11.022;2022-08-04T05:44:42;7.13;;;4.53;;
28836;SDS011;50669;50.982;11.022;2022-08-04T05:47:11;6.63;;;4.28;;
28836;SDS011;50669;50.982;11.022;2022-08-04T05:49:38;10.93;;;5.00;;
28836;SDS011;50669;50.982;11.022;2022-08-04T05:52:05;8.10;;;4.18;;
28836;SDS011;50669;50.982;11.022;2022-08-04T05:54:34;4.75;;;4.22;;
28836;SDS011;50669;50.982;11.022;2022-08-04T05:57:02;5.60;;;4.10;;
28836;SDS011;50669;50.982;11.022;2022-08-04T05:59:29;6.32;;;4.30;;
28836;SDS011;50669;50.982;11.022;2022-08-04T06:01:56;5.90;;;4.20;;
28836;SDS011;50669;50.982;11.022;2022-08-04T06:04:25;5.57;;;4.70;;
28836;SDS011;50669;50.982;11.022;2022-08-04T06:06:56;7.75;;;4.45;;
28836;SDS011;50669;50.982;11.022;2022-08-04T06:09:21;5.82;;;4.20;;
28836;SDS011;50669;50.982;11.022;2022-08-04T06:11:48;5.13;;;4.43;;
28836;SDS011;50669;50.982;11.022;2022-08-04T06:14:16;5.63;;;4.65;;
28836;SDS011;50669;50.982;11.022;2022-08-04T06:16:44;6.05;;;4.57;;
28836;SDS011;50669;50.982;11.022;2022-08-04T06:19:11;10.07;;;4.68;;
28836;SDS011;50669;50.982;11.022;2022-08-04T06:21:40;7.20;;;4.38;;
28836;SDS011;50669;50.982;11.022;2022-08-04T06:24:10;9.85;;;5.00;;
28836;SDS011;50669;50.982;11.022;2022-08-04T06:26:41;6.80;;;4.90;;
28836;SDS011;50669;50.982;11.022;2022-08-04T06:29:09;11.80;;;5.80;;
28836;SDS011;50669;50.982;11.022;2022-08-04T06:31:48;5.50;;;4.63;;
28836;SDS011;50669;50.982;11.022;2022-08-04T06:34:26;6.05;;;3.67;;
28836;SDS011;50669;50.982;11.022;2022-08-04T06:36:56;5.88;;;4.50;;
28836;SDS011;50669;50.982;11.022;2022-08-04T06:39:23;8.80;;;4.40;;
28836;SDS011;50669;50.982;11.022;2022-08-04T06:41:55;7.03;;;4.18;;
28836;SDS011;50669;50.982;11.022;2022-08-04T06:44:21;8.43;;;5.22;;
28836;SDS011;50669;50.982;11.022;2022-08-04T06:46:52;7.65;;;4.20;;
28836;SDS011;50669;50.982;11.022;2022-08-04T06:49:22;5.10;;;4.40;;
28836;SDS011;50669;50.982;11.022;2022-08-04T06:51:48;6.40;;;3.97;;
28836;SDS011;50669;50.982;11.022;2022-08-04T06:54:16;7.47;;;4.25;;
28836;SDS011;50669;50.982;11.022;2022-08-04T06:56:42;7.32;;;4.78;;
28836;SDS011;50669;50.982;11.022;2022-08-04T06:59:10;7.95;;;4.47;;
28836;SDS011;50669;50.982;11.022;2022-08-04T07:01:42;5.47;;;4.28;;
28836;SDS011;50669;50.982;11.022;2022-08-04T07:04:12;6.07;;;4.75;;
28836;SDS011;50669;50.982;11.022;2022-08-04T07:06:38;5.80;;;4.22;;
28836;SDS011;50669;50.982;11.022;2022-08-04T07:09:05;5.05;;;4.43;;
28836;SDS011;50669;50.982;11.022;2022-08-04T07:11:34;6.93;;;4.45;;
28836;SDS011;50669;50.982;11.022;2022-08-04T07:14:02;4.53;;;4.10;;
28836;SDS011;50669;50.982;11.022;2022-08-04T07:16:29;9.48;;;4.60;;
28836;SDS011;50669;50.982;11.022;2022-08-04T07:18:56;17.65;;;5.75;;
28836;SDS011;50669;50.982;11.022;2022-08-04T07:21:24;10.98;;;4.43;;
28836;SDS011;50669;50.982;11.022;2022-08-04T07:23:51;7.45;;;4.97;;
28836;SDS011;50669;50.982;11.022;2022-08-04T07:26:19;11.48;;;4.57;;
28836;SDS011;50669;50.982;11.022;2022-08-04T07:28:56;7.97;;;4.93;;
28836;SDS011;50669;50.982;11.022;2022-08-04T07:31:25;6.82;;;4.05;;
28836;SDS011;50669;50.982;11.022;2022-08-04T07:33:52;7.47;;;3.95;;
28836;SDS011;50669;50.982;11.022;2022-08-04T07:36:20;10.82;;;4.60;;
28836;SDS011;50669;50.982;11.022;2022-08-04T07:38:45;7.07;;;3.85;;
28836;SDS011;50669;50.982;11.022;2022-08-04T07:41:11;7.65;;;4.45;;
28836;SDS011;50669;50.982;11.022;2022-08-04T07:43:43;7.15;;;4.38;;
28836;SDS011;50669;50.982;11.022;2022-08-04T07:46:08;6.05;;;4.13;;
28836;SDS011;50669;50.982;11.022;2022-08-04T07:48:37;13.07;;;5.55;;
28836;SDS011;50669;50.982;11.022;2022-08-04T07:51:02;7.82;;;4.25;;
28836;SDS011;50669;50.982;11.022;2022-08-04T07:53:31;8.35;;;4.82;;
28836;SDS011;50669;50.982;11.022;2022-08-04T07:55:58;9.93;;;4.72;;
28836;SDS011;50669;50.982;11.022;2022-08-04T07:58:25;8.52;;;4.15;;
28836;SDS011;50669;50.982;11.022;2022-08-04T08:00:52;7.45;;;4.20;;
28836;SDS011;50669;50.982;11.022;2022-08-04T08:03:18;10.20;;;5.00;;
28836;SDS011;50669;50.982;11.022;2022-08-04T08:05:45;8.23;;;5.88;;
28836;SDS011;50669;50.982;11.022;2022-08-04T08:08:10;12.95;;;4.90;;
28836;SDS011;50669;50.982;11.022;2022-08-04T08:10:36;6.60;;;3.92;;
28836;SDS011;50669;50.982;11.022;2022-08-04T08:13:03;5.45;;;3.65;;
28836;SDS011;50669;50.982;11.022;2022-08-04T08:15:30;7.72;;;4.10;;
28836;SDS011;50669;50.982;11.022;2022-08-04T08:17:56;8.07;;;4.30;;
28836;SDS011;50669;50.982;11.022;2022-08-04T08:20:24;7.72;;;4.10;;
28836;SDS011;50669;50.982;11.022;2022-08-04T08:22:49;5.53;;;3.88;;
28836;SDS011;50669;50.982;11.022;2022-08-04T08:25:15;5.65;;;3.90;;
28836;SDS011;50669;50.982;11.022;2022-08-04T08:27:41;6.38;;;3.80;;
28836;SDS011;50669;50.982;11.022;2022-08-04T08:30:09;7.65;;;3.67;;
28836;SDS011;50669;50.982;11.022;2022-08-04T08:32:38;7.55;;;3.13;;
28836;SDS011;50669;50.982;11.022;2022-08-04T08:35:04;8.93;;;4.07;;
28836;SDS011;50669;50.982;11.022;2022-08-04T08:45:40;7.50;;;4.03;;
28836;SDS011;50669;50.982;11.022;2022-08-04T09:13:18;3.42;;;2.60;;
28836;SDS011;50669;50.982;11.022;2022-08-04T09:18:43;2.55;;;1.63;;
28836;SDS011;50669;50.982;11.022;2022-08-04T09:21:30;2.90;;;1.58;;
28836;SDS011;50669;50.982;11.022;2022-08-04T09:26:45;4.55;;;1.70;;
28836;SDS011;50669;50.982;11.022;2022-08-04T09:29:26;3.63;;;1.77;;
28836;SDS011;50669;50.982;11.022;2022-08-04T09:40:28;5.47;;;2.10;;
28836;SDS011;50669;50.982;11.022;2022-08-04T09:43:01;5.38;;;1.90;;
28836;SDS011;50669;50.982;11.022;2022-08-04T09:48:12;3.23;;;1.90;;
28836;SDS011;50669;50.982;11.022;2022-08-04T09:50:45;4.97;;;1.75;;
28836;SDS011;50669;50.982;11.022;2022-08-04T09:58:39;4.07;;;1.50;;
28836;SDS011;50669;50.982;11.022;2022-08-04T10:01:19;2.50;;;1.45;;
28836;SDS011;50669;50.982;11.022;2022-08-04T10:03:54;1.00;;;0.90;;
28836;SDS011;50669;50.982;11.022;2022-08-04T10:14:57;2.80;;;1.40;;
28836;SDS011;50669;50.982;11.022;2022-08-04T10:17:38;1.52;;;1.20;;
28836;SDS011;50669;50.982;11.022;2022-08-04T10:32:10;3.13;;;1.40;;
28836;SDS011;50669;50.982;11.022;2022-08-04T10:34:40;2.85;;;1.42;;
28836;SDS011;50669;50.982;11.022;2022-08-04T10:37:20;1.60;;;1.50;;
28836;SDS011;50669;50.982;11.022;2022-08-04T10:45:55;1.50;;;1.40;;
28836;SDS011;50669;50.982;11.022;2022-08-04T10:51:17;2.58;;;1.42;;
28836;SDS011;50669;50.982;11.022;2022-08-04T10:53:44;1.92;;;1.58;;
28836;SDS011;50669;50.982;11.022;2022-08-04T10:56:21;2.67;;;1.67;;
28836;SDS011;50669;50.982;11.022;2022-08-04T10:59:02;2.30;;;1.77;;
28836;SDS011;50669;50.982;11.022;2022-08-04T11:01:34;2.42;;;1.23;;
28836;SDS011;50669;50.982;11.022;2022-08-04T11:04:07;2.78;;;1.55;;
28836;SDS011;50669;50.982;11.022;2022-08-04T11:06:55;2.50;;;1.55;;
28836;SDS011;50669;50.982;11.022;2022-08-04T11:09:23;1.50;;;1.40;;
28836;SDS011;50669;50.982;11.022;2022-08-04T11:11:56;2.05;;;1.42;;
28836;SDS011;50669;50.982;11.022;2022-08-04T11:14:32;1.42;;;1.33;;
28836;SDS011;50669;50.982;11.022;2022-08-04T11:17:10;2.92;;;1.48;;
28836;SDS011;50669;50.982;11.022;2022-08-04T11:22:29;2.17;;;1.70;;
28836;SDS011;50669;50.982;11.022;2022-08-04T11:25:03;2.30;;;1.67;;
28836;SDS011;50669;50.982;11.022;2022-08-04T11:30:15;1.58;;;1.27;;
28836;SDS011;50669;50.982;11.022;2022-08-04T11:37:49;4.57;;;1.85;;
28836;SDS011;50669;50.982;11.022;2022-08-04T11:40:28;7.40;;;2.00;;
28836;SDS011;50669;50.982;11.022;2022-08-04T11:43:16;3.42;;;1.95;;
28836;SDS011;50669;50.982;11.022;2022-08-04T11:45:53;4.03;;;1.60;;
28836;SDS011;50669;50.982;11.022;2022-08-04T11:48:35;3.47;;;1.70;;
28836;SDS011;50669;50.982;11.022;2022-08-04T11:51:09;5.63;;;1.83;;
28836;SDS011;50669;50.982;11.022;2022-08-04T11:53:36;3.10;;;1.67;;
28836;SDS011;50669;50.982;11.022;2022-08-04T11:56:08;1.67;;;1.58;;
28836;SDS011;50669;50.982;11.022;2022-08-04T11:58:39;3.20;;;2.90;;
28836;SDS011;50669;50.982;11.022;2022-08-04T12:04:04;1.80;;;1.55;;
28836;SDS011;50669;50.982;11.022;2022-08-04T12:17:48;3.15;;;1.23;;
28836;SDS011;50669;50.982;11.022;2022-08-04T12:20:28;1.75;;;1.35;;
28836;SDS011;50669;50.982;11.022;2022-08-04T12:22:58;3.97;;;1.80;;
28836;SDS011;50669;50.982;11.022;2022-08-04T12:25:29;2.15;;;1.20;;
28836;SDS011;50669;50.982;11.022;2022-08-04T12:28:10;3.05;;;1.80;;
28836;SDS011;50669;50.982;11.022;2022-08-04T12:30:44;5.50;;;1.73;;
28836;SDS011;50669;50.982;11.022;2022-08-04T12:33:20;1.83;;;1.73;;
28836;SDS011;50669;50.982;11.022;2022-08-04T12:36:07;2.40;;;1.80;;
28836;SDS011;50669;50.982;11.022;2022-08-04T12:38:58;2.47;;;1.60;;
28836;SDS011;50669;50.982;11.022;2022-08-04T12:41:35;2.85;;;2.65;;
28836;SDS011;50669;50.982;11.022;2022-08-04T12:44:22;2.05;;;1.55;;
28836;SDS011;50669;50.982;11.022;2022-08-04T12:46:55;1.92;;;1.23;;
28836;SDS011;50669;50.982;11.022;2022-08-04T12:49:25;1.45;;;1.30;;
28836;SDS011;50669;50.982;11.022;2022-08-04T12:51:52;1.27;;;1.17;;
28836;SDS011;50669;50.982;11.022;2022-08-04T12:54:22;2.40;;;1.45;;
28836;SDS011;50669;50.982;11.022;2022-08-04T12:56:56;1.80;;;1.70;;
28836;SDS011;50669;50.982;11.022;2022-08-04T12:59:23;1.85;;;1.55;;
28836;SDS011;50669;50.982;11.022;2022-08-04T13:01:48;4.40;;;1.80;;
28836;SDS011;50669;50.982;11.022;2022-08-04T13:04:19;2.55;;;1.75;;
28836;SDS011;50669;50.982;11.022;2022-08-04T13:06:51;2.28;;;1.35;;
28836;SDS011;50669;50.982;11.022;2022-08-04T13:09:31;2.00;;;1.60;;
28836;SDS011;50669;50.982;11.022;2022-08-04T13:12:04;3.45;;;3.03;;
28836;SDS011;50669;50.982;11.022;2022-08-04T13:14:41;7.13;;;1.73;;
28836;SDS011;50669;50.982;11.022;2022-08-04T13:17:09;1.60;;;1.45;;
28836;SDS011;50669;50.982;11.022;2022-08-04T13:19:35;2.30;;;1.70;;
28836;SDS011;50669;50.982;11.022;2022-08-04T13:22:05;1.60;;;1.50;;
28836;SDS011;50669;50.982;11.022;2022-08-04T13:24:31;1.90;;;1.38;;
28836;SDS011;50669;50.982;11.022;2022-08-04T13:27:00;5.82;;;1.40;;
28836;SDS011;50669;50.982;11.022;2022-08-04T13:32:03;4.57;;;2.05;;
28836;SDS011;50669;50.982;11.022;2022-08-04T13:34:31;6.78;;;1.85;;
28836;SDS011;50669;50.982;11.022;2022-08-04T13:37:03;3.10;;;2.90;;
28836;SDS011;50669;50.982;11.022;2022-08-04T13:39:30;5.20;;;2.50;;
28836;SDS011;50669;50.982;11.022;2022-08-04T13:42:01;1.48;;;1.35;;
28836;SDS011;50669;50.982;11.022;2022-08-04T13:44:29;1.58;;;1.42;;
28836;SDS011;50669;50.982;11.022;2022-08-04T13:46:58;1.80;;;1.40;;
28836;SDS011;50669;50.982;11.022;2022-08-04T13:49:35;2.25;;;1.52;;
28836;SDS011;50669;50.982;11.022;2022-08-04T13:52:04;3.45;;;1.20;;
28836;SDS011;50669;50.982;11.022;2022-08-04T13:54:38;2.00;;;1.80;;
28836;SDS011;50669;50.982;11.022;2022-08-04T13:57:21;1.85;;;1.50;;
28836;SDS011;50669;50.982;11.022;2022-08-04T13:59:55;2.17;;;1.77;;
28836;SDS011;50669;50.982;11.022;2022-08-04T14:02:36;2.55;;;1.60;;
28836;SDS011;50669;50.982;11.022;2022-08-04T14:05:27;1.80;;;1.70;;
28836;SDS011;50669;50.982;11.022;2022-08-04T14:08:11;2.85;;;1.88;;
28836;SDS011;50669;50.982;11.022;2022-08-04T14:10:41;1.90;;;1.70;;
28836;SDS011;50669;50.982;11.022;2022-08-04T14:13:17;4.68;;;1.90;;
28836;SDS011;50669;50.982;11.022;2022-08-04T14:15:55;1.95;;;1.75;;
28836;SDS011;50669;50.982;11.022;2022-08-04T14:18:28;3.70;;;1.63;;
28836;SDS011;50669;50.982;11.022;2022-08-04T14:20:59;4.13;;;2.35;;
28836;SDS011;50669;50.982;11.022;2022-08-04T14:23:29;2.65;;;1.75;;
28836;SDS011;50669;50.982;11.022;2022-08-04T14:28:48;2.80;;;1.60;;
28836;SDS011;50669;50.982;11.022;2022-08-04T14:31:21;1.90;;;1.40;;
28836;SDS011;50669;50.982;11.022;2022-08-04T14:33:49;3.20;;;1.88;;
28836;SDS011;50669;50.982;11.022;2022-08-04T14:36:16;1.80;;;1.70;;
28836;SDS011;50669;50.982;11.022;2022-08-04T14:41:15;4.60;;;1.58;;
28836;SDS011;50669;50.982;11.022;2022-08-04T14:46:18;3.33;;;1.83;;
28836;SDS011;50669;50.982;11.022;2022-08-04T14:49:03;5.97;;;2.83;;
28836;SDS011;50669;50.982;11.022;2022-08-04T14:51:34;1.88;;;1.60;;
28836;SDS011;50669;50.982;11.022;2022-08-04T14:54:00;2.70;;;1.80;;
28836;SDS011;50669;50.982;11.022;2022-08-04T14:56:26;2.35;;;1.70;;
28836;SDS011;50669;50.982;11.022;2022-08-04T14:58:59;2.47;;;2.28;;
28836;SDS011;50669;50.982;11.022;2022-08-04T15:01:30;2.95;;;1.98;;
28836;SDS011;50669;50.982;11.022;2022-08-04T15:03:56;1.80;;;1.70;;
28836;SDS011;50669;50.982;11.022;2022-08-04T15:06:26;2.17;;;2.08;;
28836;SDS011;50669;50.982;11.022;2022-08-04T15:08:54;2.50;;;2.30;;
28836;SDS011;50669;50.982;11.022;2022-08-04T15:11:21;2.17;;;2.08;;
28836;SDS011;50669;50.982;11.022;2022-08-04T15:13:47;2.85;;;2.40;;
28836;SDS011;50669;50.982;11.022;2022-08-04T15:16:18;5.03;;;2.33;;
28836;SDS011;50669;50.982;11.022;2022-08-04T15:18:45;3.25;;;2.10;;
28836;SDS011;50669;50.982;11.022;2022-08-04T15:21:11;3.90;;;2.20;;
28836;SDS011;50669;50.982;11.022;2022-08-04T15:23:38;2.65;;;1.83;;
28836;SDS011;50669;50.982;11.022;2022-08-04T15:26:04;2.13;;;1.60;;
28836;SDS011;50669;50.982;11.022;2022-08-04T15:28:33;2.40;;;2.20;;
28836;SDS011;50669;50.982;11.022;2022-08-04T15:31:02;3.47;;;2.10;;
28836;SDS011;50669;50.982;11.022;2022-08-04T15:33:29;4.05;;;2.35;;
28836;SDS011;50669;50.982;11.022;2022-08-04T15:36:08;2.65;;;2.00;;
28836;SDS011;50669;50.982;11.022;2022-08-04T15:39:00;2.72;;;1.75;;
28836;SDS011;50669;50.982;11.022;2022-08-04T15:47:33;3.33;;;2.65;;
28836;SDS011;50669;50.982;11.022;2022-08-04T15:50:06;2.58;;;2.38;;
28836;SDS011;50669;50.982;11.022;2022-08-04T15:58:03;2.10;;;2.00;;
28836;SDS011;50669;50.982;11.022;2022-08-04T16:01:14;2.22;;;2.00;;
28836;SDS011;50669;50.982;11.022;2022-08-04T16:08:26;4.60;;;1.88;;
28836;SDS011;50669;50.982;11.022;2022-08-04T16:10:52;7.05;;;6.43;;
28836;SDS011;50669;50.982;11.022;2022-08-04T16:13:21;2.92;;;1.63;;
28836;SDS011;50669;50.982;11.022;2022-08-04T16:18:35;2.95;;;1.77;;
28836;SDS011;50669;50.982;11.022;2022-08-04T16:21:04;2.00;;;1.85;;
28836;SDS011;50669;50.982;11.022;2022-08-04T16:27:02;1.80;;;1.65;;
28836;SDS011;50669;50.982;11.022;2022-08-04T16:34:52;2.83;;;2.53;;
28836;SDS011;50669;50.982;11.022;2022-08-04T16:37:29;2.20;;;2.00;;
28836;SDS011;50669;50.982;11.022;2022-08-04T16:45:45;2.78;;;2.30;;
28836;SDS011;50669;50.982;11.022;2022-08-04T16:48:12;4.22;;;1.90;;
28836;SDS011;50669;50.982;11.022;2022-08-04T16:53:17;3.95;;;1.92;;
28836;SDS011;50669;50.982;11.022;2022-08-04T16:55:46;2.13;;;1.85;;
28836;SDS011;50669;50.982;11.022;2022-08-04T16:58:14;2.20;;;2.00;;
28836;SDS011;50669;50.982;11.022;2022-08-04T17:00:51;6.07;;;2.40;;
28836;SDS011;50669;50.982;11.022;2022-08-04T17:03:20;3.00;;;2.30;;
28836;SDS011;50669;50.982;11.022;2022-08-04T17:05:48;2.97;;;2.40;;
28836;SDS011;50669;50.982;11.022;2022-08-04T17:08:14;2.35;;;2.10;;
28836;SDS011;50669;50.982;11.022;2022-08-04T17:10:44;2.22;;;1.75;;
28836;SDS011;50669;50.982;11.022;2022-08-04T17:15:57;3.05;;;1.95;;
28836;SDS011;50669;50.982;11.022;2022-08-04T17:18:30;2.88;;;1.90;;
28836;SDS011;50669;50.982;11.022;2022-08-04T17:21:00;4.22;;;1.77;;
28836;SDS011;50669;50.982;11.022;2022-08-04T17:23:38;1.92;;;1.80;;
28836;SDS011;50669;50.982;11.022;2022-08-04T17:28:36;4.25;;;2.40;;
28836;SDS011;50669;50.982;11.022;2022-08-04T17:31:07;4.82;;;2.50;;
28836;SDS011;50669;50.982;11.022;2022-08-04T17:33:42;4.97;;;2.20;;
28836;SDS011;50669;50.982;11.022;2022-08-04T17:36:10;3.20;;;2.80;;
28836;SDS011;50669;50.982;11.022;2022-08-04T17:38:40;2.80;;;2.28;;
28836;SDS011;50669;50.982;11.022;2022-08-04T17:41:13;3.20;;;2.25;;
28836;SDS011;50669;50.982;11.022;2022-08-04T17:46:20;12.63;;;3.90;;
28836;SDS011;50669;50.982;11.022;2022-08-04T17:48:58;6.22;;;3.05;;
28836;SDS011;50669;50.982;11.022;2022-08-04T17:51:38;3.65;;;2.70;;
28836;SDS011;50669;50.982;11.022;2022-08-04T17:54:09;5.22;;;2.80;;
28836;SDS011;50669;50.982;11.022;2022-08-04T17:56:40;4.05;;;2.60;;
28836;SDS011;50669;50.982;11.022;2022-08-04T17:59:18;3.25;;;2.35;;
28836;SDS011;50669;50.982;11.022;2022-08-04T18:01:57;6.25;;;2.40;;
28836;SDS011;50669;50.982;11.022;2022-08-04T18:04:33;6.10;;;3.40;;
28836;SDS011;50669;50.982;11.022;2022-08-04T18:14:46;7.47;;;3.70;;
28836;SDS011;50669;50.982;11.022;2022-08-04T18:17:29;3.10;;;2.78;;
28836;SDS011;50669;50.982;11.022;2022-08-04T18:19:59;3.42;;;2.67;;
28836;SDS011;50669;50.982;11.022;2022-08-04T18:22:27;5.35;;;2.58;;
28836;SDS011;50669;50.982;11.022;2022-08-04T18:24:55;6.72;;;2.80;;
28836;SDS011;50669;50.982;11.022;2022-08-04T18:27:22;3.50;;;3.00;;
28836;SDS011;50669;50.982;11.022;2022-08-04T18:29:49;6.05;;;3.08;;
28836;SDS011;50669;50.982;11.022;2022-08-04T18:32:15;4.35;;;2.70;;
28836;SDS011;50669;50.982;11.022;2022-08-04T18:34:41;6.78;;;3.13;;
28836;SDS011;50669;50.982;11.022;2022-08-04T18:37:09;5.95;;;2.90;;
28836;SDS011;50669;50.982;11.022;2022-08-04T18:39:35;11.75;;;10.65;;
28836;SDS011;50669;50.982;11.022;2022-08-04T18:42:03;11.93;;;6.03;;
28836;SDS011;50669;50.982;11.022;2022-08-04T18:44:31;15.50;;;6.80;;
28836;SDS011;50669;50.982;11.022;2022-08-04T18:46:58;10.50;;;6.47;;
28836;SDS011;50669;50.982;11.022;2022-08-04T18:49:28;10.90;;;7.30;;
28836;SDS011;50669;50.982;11.022;2022-08-04T18:51:55;10.45;;;6.20;;
28836;SDS011;50669;50.982;11.022;2022-08-04T18:54:22;11.43;;;6.78;;
28836;SDS011;50669;50.982;11.022;2022-08-04T18:56:49;10.90;;;8.90;;
28836;SDS011;50669;50.982;11.022;2022-08-04T18:59:19;31.77;;;28.33;;
28836;SDS011;50669;50.982;11.022;2022-08-04T19:01:45;31.40;;;28.13;;
28836;SDS011;50669;50.982;11.022;2022-08-04T19:04:13;14.73;;;11.07;;
28836;SDS011;50669;50.982;11.022;2022-08-04T19:06:40;14.77;;;8.35;;
28836;SDS011;50669;50.982;11.022;2022-08-04T19:09:06;10.68;;;8.15;;
28836;SDS011;50669;50.982;11.022;2022-08-04T19:11:34;10.70;;;7.07;;
28836;SDS011;50669;50.982;11.022;2022-08-04T19:14:03;18.98;;;10.60;;
28836;SDS011;50669;50.982;11.022;2022-08-04T19:16:29;6.63;;;4.75;;
28836;SDS011;50669;50.982;11.022;2022-08-04T19:19:00;4.47;;;3.65;;
28836;SDS011;50669;50.982;11.022;2022-08-04T19:21:28;3.87;;;3.47;;
28836;SDS011;50669;50.982;11.022;2022-08-04T19:23:56;4.07;;;3.00;;
28836;SDS011;50669;50.982;11.022;2022-08-04T19:26:22;11.35;;;5.22;;
28836;SDS011;50669;50.982;11.022;2022-08-04T19:28:49;8.80;;;4.00;;
28836;SDS011;50669;50.982;11.022;2022-08-04T19:31:16;6.00;;;3.58;;
28836;SDS011;50669;50.982;11.022;2022-08-04T19:33:42;7.97;;;4.20;;
28836;SDS011;50669;50.982;11.022;2022-08-04T19:36:10;5.45;;;4.57;;
28836;SDS011;50669;50.982;11.022;2022-08-04T19:38:36;6.80;;;4.32;;
28836;SDS011;50669;50.982;11.022;2022-08-04T19:41:04;5.60;;;4.30;;
28836;SDS011;50669;50.982;11.022;2022-08-04T19:43:31;11.98;;;5.85;;
28836;SDS011;50669;50.982;11.022;2022-08-04T19:45:57;7.10;;;4.85;;
28836;SDS011;50669;50.982;11.022;2022-08-04T19:48:23;5.30;;;3.97;;
28836;SDS011;50669;50.982;11.022;2022-08-04T19:50:49;5.15;;;3.22;;
28836;SDS011;50669;50.982;11.022;2022-08-04T19:53:17;5.90;;;4.03;;
28836;SDS011;50669;50.982;11.022;2022-08-04T19:55:43;4.68;;;3.30;;
28836;SDS011;50669;50.982;11.022;2022-08-04T19:58:09;5.13;;;3.50;;
28836;SDS011;50669;50.982;11.022;2022-08-04T20:00:37;6.18;;;3.42;;
28836;SDS011;50669;50.982;11.022;2022-08-04T20:03:07;7.70;;;4.18;;
28836;SDS011;50669;50.982;11.022;2022-08-04T20:05:33;7.05;;;5.00;;
28836;SDS011;50669;50.982;11.022;2022-08-04T20:07:59;4.30;;;3.30;;
28836;SDS011;50669;50.982;11.022;2022-08-04T20:10:27;6.25;;;3.67;;
28836;SDS011;50669;50.982;11.022;2022-08-04T20:12:53;9.52;;;3.63;;
28836;SDS011;50669;50.982;11.022;2022-08-04T20:15:21;6.82;;;4.00;;
28836;SDS011;50669;50.982;11.022;2022-08-04T20:17:49;8.65;;;4.07;;
28836;SDS011;50669;50.982;11.022;2022-08-04T20:20:15;8.48;;;3.63;;
28836;SDS011;50669;50.982;11.022;2022-08-04T20:22:46;4.90;;;3.40;;